sensor_id;sensor_type;location;lat;lon;timestamp;temperature;humidity
38860;DHT22;24609;48.316;16.174;2023-04-16T00:01:49;6.30;99.90
38860;DHT22;24609;48.316;16.174;2023-04-16T00:04:15;6.20;99.90
38860;DHT22;24609;48.316;16.174;2023-04-16T00:06:41;6.20;99.90
38860;DHT22;24609;48.316;16.174;2023-04-16T00:09:07;6.10;99.90
38860;DHT22;24609;48.316;16.174;2023-04-16T00:11:32;6.00;99.90
38860;DHT22;24609;48.316;16.174;2023-04-16T00:13:58;5.90;99.90
38860;DHT22;24609;48.316;16.174;2023-04-16T00:16:24;5.80;99.90
38860;DHT22;24609;48.316;16.174;2023-04-16T00:18:50;5.80;99.90
38860;DHT22;24609;48.316;16.174;2023-04-16T00:21:15;5.80;99.90
38860;DHT22;24609;48.316;16.174;2023-04-16T00:23:41;5.70;99.90
38860;DHT22;24609;48.316;16.174;2023-04-16T00:26:07;5.60;99.90
38860;DHT22;24609;48.316;16.174;2023-04-16T00:28:33;5.50;99.90
38860;DHT22;24609;48.316;16.174;2023-04-16T00:31:00;5.40;99.90
38860;DHT22;24609;48.316;16.174;2023-04-16T00:33:25;5.30;99.90
38860;DHT22;24609;48.316;16.174;2023-04-16T00:35:51;5.10;99.90
38860;DHT22;24609;48.316;16.174;2023-04-16T00:38:17;5.00;99.90
38860;DHT22;24609;48.316;16.174;2023-04-16T00:40:42;4.90;99.90
38860;DHT22;24609;48.316;16.174;2023-04-16T00:43:08;4.80;99.90
38860;DHT22;24609;48.316;16.174;2023-04-16T00:45:34;4.70;99.90
38860;DHT22;24609;48.316;16.174;2023-04-16T00:48:00;4.60;99.90
38860;DHT22;24609;48.316;16.174;2023-04-16T00:50:26;4.50;99.90
38860;DHT22;24609;48.316;16.174;2023-04-16T00:52:52;4.40;99.90
38860;DHT22;24609;48.316;16.174;2023-04-16T00:55:19;4.40;99.90
38860;DHT22;24609;48.316;16.174;2023-04-16T00:57:45;4.30;99.90
38860;DHT22;24609;48.316;16.174;2023-04-16T01:00:11;4.10;99.90
38860;DHT22;24609;48.316;16.174;2023-04-16T01:02:37;4.00;99.90
38860;DHT22;24609;48.316;16.174;2023-04-16T01:05:04;3.80;99.90
38860;DHT22;24609;48.316;16.174;2023-04-16T01:07:30;3.70;99.90
38860;DHT22;24609;48.316;16.174;2023-04-16T01:09:56;3.70;99.90
38860;DHT22;24609;48.316;16.174;2023-04-16T01:12:22;3.80;99.90
38860;DHT22;24609;48.316;16.174;2023-04-16T01:14:47;3.80;99.90
38860;DHT22;24609;48.316;16.174;2023-04-16T01:17:13;3.90;99.90
38860;DHT22;24609;48.316;16.174;2023-04-16T01:19:39;4.00;99.90
38860;DHT22;24609;48.316;16.174;2023-04-16T01:22:05;4.00;99.90
38860;DHT22;24609;48.316;16.174;2023-04-16T01:24:31;4.20;99.90
38860;DHT22;24609;48.316;16.174;2023-04-16T01:26:59;4.20;99.90
38860;DHT22;24609;48.316;16.174;2023-04-16T01:29:25;4.10;99.90
38860;DHT22;24609;48.316;16.174;2023-04-16T01:31:51;4.00;99.90
38860;DHT22;24609;48.316;16.174;2023-04-16T01:34:17;4.10;99.90
38860;DHT22;24609;48.316;16.174;2023-04-16T01:36:43;4.10;99.90
38860;DHT22;24609;48.316;16.174;2023-04-16T01:39:08;4.10;99.90
38860;DHT22;24609;48.316;16.174;2023-04-16T01:41:38;4.20;99.90
38860;DHT22;24609;48.316;16.174;2023-04-16T01:44:03;4.20;99.90
38860;DHT22;24609;48.316;16.174;2023-04-16T01:46:33;4.30;99.90
38860;DHT22;24609;48.316;16.174;2023-04-16T01:49:00;4.30;99.90
38860;DHT22;24609;48.316;16.174;2023-04-16T01:51:26;4.30;99.90
38860;DHT22;24609;48.316;16.174;2023-04-16T01:53:52;4.20;99.90
38860;DHT22;24609;48.316;16.174;2023-04-16T01:56:18;4.20;99.90
38860;DHT22;24609;48.316;16.174;2023-04-16T01:58:44;4.20;99.90
38860;DHT22;24609;48.316;16.174;2023-04-16T02:01:11;4.20;99.90
38860;DHT22;24609;48.316;16.174;2023-04-16T02:03:36;4.20;99.90
38860;DHT22;24609;48.316;16.174;2023-04-16T02:06:02;4.20;99.90
38860;DHT22;24609;48.316;16.174;2023-04-16T02:08:28;4.30;99.90
38860;DHT22;24609;48.316;16.174;2023-04-16T02:10:55;4.40;99.90
38860;DHT22;24609;48.316;16.174;2023-04-16T02:13:21;4.50;99.90
38860;DHT22;24609;48.316;16.174;2023-04-16T02:15:50;4.50;99.90
38860;DHT22;24609;48.316;16.174;2023-04-16T02:18:16;4.60;99.90
38860;DHT22;24609;48.316;16.174;2023-04-16T02:20:45;4.70;99.90
38860;DHT22;24609;48.316;16.174;2023-04-16T02:23:12;4.80;99.90
38860;DHT22;24609;48.316;16.174;2023-04-16T02:25:44;4.90;99.90
38860;DHT22;24609;48.316;16.174;2023-04-16T02:28:12;5.00;99.90
38860;DHT22;24609;48.316;16.174;2023-04-16T02:30:39;5.00;99.90
38860;DHT22;24609;48.316;16.174;2023-04-16T02:33:06;5.00;99.90
38860;DHT22;24609;48.316;16.174;2023-04-16T02:35:33;5.00;99.90
38860;DHT22;24609;48.316;16.174;2023-04-16T02:37:59;5.10;99.90
38860;DHT22;24609;48.316;16.174;2023-04-16T02:40:25;5.10;99.90
38860;DHT22;24609;48.316;16.174;2023-04-16T02:42:51;5.10;99.90
38860;DHT22;24609;48.316;16.174;2023-04-16T02:45:17;5.20;99.90
38860;DHT22;24609;48.316;16.174;2023-04-16T02:47:43;5.20;99.90
38860;DHT22;24609;48.316;16.174;2023-04-16T02:50:09;5.20;99.90
38860;DHT22;24609;48.316;16.174;2023-04-16T02:52:34;5.30;99.90
38860;DHT22;24609;48.316;16.174;2023-04-16T02:55:00;5.30;99.90
38860;DHT22;24609;48.316;16.174;2023-04-16T02:57:26;5.40;99.90
38860;DHT22;24609;48.316;16.174;2023-04-16T02:59:51;5.40;99.90
38860;DHT22;24609;48.316;16.174;2023-04-16T03:02:18;5.50;99.90
38860;DHT22;24609;48.316;16.174;2023-04-16T03:04:43;5.50;99.90
38860;DHT22;24609;48.316;16.174;2023-04-16T03:07:09;5.60;99.90
38860;DHT22;24609;48.316;16.174;2023-04-16T03:09:36;5.60;99.90
38860;DHT22;24609;48.316;16.174;2023-04-16T03:12:02;5.70;99.90
38860;DHT22;24609;48.316;16.174;2023-04-16T03:14:28;5.70;99.90
38860;DHT22;24609;48.316;16.174;2023-04-16T03:16:54;5.70;99.90
38860;DHT22;24609;48.316;16.174;2023-04-16T03:19:20;5.80;99.90
38860;DHT22;24609;48.316;16.174;2023-04-16T03:21:46;5.80;99.90
38860;DHT22;24609;48.316;16.174;2023-04-16T03:24:11;5.80;99.90
38860;DHT22;24609;48.316;16.174;2023-04-16T03:26:37;5.80;99.90
38860;DHT22;24609;48.316;16.174;2023-04-16T03:29:03;5.80;99.90
38860;DHT22;24609;48.316;16.174;2023-04-16T03:31:29;5.80;99.90
38860;DHT22;24609;48.316;16.174;2023-04-16T03:33:55;5.90;99.90
38860;DHT22;24609;48.316;16.174;2023-04-16T03:36:21;5.80;99.90
38860;DHT22;24609;48.316;16.174;2023-04-16T03:38:51;5.90;99.90
38860;DHT22;24609;48.316;16.174;2023-04-16T03:41:17;5.90;99.90
38860;DHT22;24609;48.316;16.174;2023-04-16T03:43:43;5.90;99.90
38860;DHT22;24609;48.316;16.174;2023-04-16T03:46:09;5.90;99.90
38860;DHT22;24609;48.316;16.174;2023-04-16T03:48:34;5.90;99.90
38860;DHT22;24609;48.316;16.174;2023-04-16T03:51:01;5.90;99.90
38860;DHT22;24609;48.316;16.174;2023-04-16T03:53:27;5.90;99.90
38860;DHT22;24609;48.316;16.174;2023-04-16T03:55:52;5.90;99.90
38860;DHT22;24609;48.316;16.174;2023-04-16T03:58:18;5.90;99.90
38860;DHT22;24609;48.316;16.174;2023-04-16T04:00:44;6.00;99.90
38860;DHT22;24609;48.316;16.174;2023-04-16T04:03:10;6.00;99.90
38860;DHT22;24609;48.316;16.174;2023-04-16T04:05:40;6.00;99.90
38860;DHT22;24609;48.316;16.174;2023-04-16T04:08:07;6.10;99.90
38860;DHT22;24609;48.316;16.174;2023-04-16T04:10:36;6.10;99.90
38860;DHT22;24609;48.316;16.174;2023-04-16T04:13:03;6.10;99.90
38860;DHT22;24609;48.316;16.174;2023-04-16T04:15:29;6.10;99.90
38860;DHT22;24609;48.316;16.174;2023-04-16T04:17:54;6.10;99.90
38860;DHT22;24609;48.316;16.174;2023-04-16T04:20:20;6.10;99.90
38860;DHT22;24609;48.316;16.174;2023-04-16T04:22:46;6.10;99.90
38860;DHT22;24609;48.316;16.174;2023-04-16T04:25:12;6.10;99.90
38860;DHT22;24609;48.316;16.174;2023-04-16T04:27:38;6.00;99.90
38860;DHT22;24609;48.316;16.174;2023-04-16T04:30:04;6.00;99.90
38860;DHT22;24609;48.316;16.174;2023-04-16T04:32:30;6.00;99.90
38860;DHT22;24609;48.316;16.174;2023-04-16T04:34:56;6.00;99.90
38860;DHT22;24609;48.316;16.174;2023-04-16T04:37:21;6.00;99.90
38860;DHT22;24609;48.316;16.174;2023-04-16T04:39:47;6.00;99.90
38860;DHT22;24609;48.316;16.174;2023-04-16T04:42:16;6.10;99.90
38860;DHT22;24609;48.316;16.174;2023-04-16T04:44:43;6.10;99.90
38860;DHT22;24609;48.316;16.174;2023-04-16T04:47:08;6.20;99.90
38860;DHT22;24609;48.316;16.174;2023-04-16T04:49:35;6.30;99.90
38860;DHT22;24609;48.316;16.174;2023-04-16T04:52:00;6.30;99.90
38860;DHT22;24609;48.316;16.174;2023-04-16T04:54:27;6.40;99.90
38860;DHT22;24609;48.316;16.174;2023-04-16T04:56:53;6.50;99.90
38860;DHT22;24609;48.316;16.174;2023-04-16T04:59:23;6.60;99.90
38860;DHT22;24609;48.316;16.174;2023-04-16T05:01:49;6.70;99.90
38860;DHT22;24609;48.316;16.174;2023-04-16T05:04:15;6.70;99.90
38860;DHT22;24609;48.316;16.174;2023-04-16T05:06:41;6.90;99.90
38860;DHT22;24609;48.316;16.174;2023-04-16T05:09:06;6.80;99.90
38860;DHT22;24609;48.316;16.174;2023-04-16T05:11:39;6.80;99.90
38860;DHT22;24609;48.316;16.174;2023-04-16T05:14:06;6.80;99.90
38860;DHT22;24609;48.316;16.174;2023-04-16T05:16:34;7.00;99.90
38860;DHT22;24609;48.316;16.174;2023-04-16T05:19:00;7.20;99.90
38860;DHT22;24609;48.316;16.174;2023-04-16T05:21:26;7.30;99.90
38860;DHT22;24609;48.316;16.174;2023-04-16T05:23:52;7.50;99.90
38860;DHT22;24609;48.316;16.174;2023-04-16T05:26:17;7.60;99.90
38860;DHT22;24609;48.316;16.174;2023-04-16T05:28:43;7.70;99.90
38860;DHT22;24609;48.316;16.174;2023-04-16T05:31:09;7.70;99.90
38860;DHT22;24609;48.316;16.174;2023-04-16T05:33:35;7.80;99.90
38860;DHT22;24609;48.316;16.174;2023-04-16T05:36:00;7.90;99.90
38860;DHT22;24609;48.316;16.174;2023-04-16T05:38:26;8.00;99.90
38860;DHT22;24609;48.316;16.174;2023-04-16T05:40:52;8.10;99.90
38860;DHT22;24609;48.316;16.174;2023-04-16T05:43:17;8.10;99.90
38860;DHT22;24609;48.316;16.174;2023-04-16T05:45:43;8.20;99.90
38860;DHT22;24609;48.316;16.174;2023-04-16T05:48:09;8.10;99.90
38860;DHT22;24609;48.316;16.174;2023-04-16T05:50:35;8.20;99.90
38860;DHT22;24609;48.316;16.174;2023-04-16T05:53:04;8.40;99.90
38860;DHT22;24609;48.316;16.174;2023-04-16T05:55:30;8.50;99.90
38860;DHT22;24609;48.316;16.174;2023-04-16T05:57:56;8.60;99.90
38860;DHT22;24609;48.316;16.174;2023-04-16T06:00:22;8.70;99.90
38860;DHT22;24609;48.316;16.174;2023-04-16T06:02:48;8.90;99.90
38860;DHT22;24609;48.316;16.174;2023-04-16T06:05:13;9.00;99.90
38860;DHT22;24609;48.316;16.174;2023-04-16T06:07:39;9.00;99.90
38860;DHT22;24609;48.316;16.174;2023-04-16T06:10:05;9.00;99.90
38860;DHT22;24609;48.316;16.174;2023-04-16T06:12:31;9.10;99.90
38860;DHT22;24609;48.316;16.174;2023-04-16T06:14:57;9.20;99.90
38860;DHT22;24609;48.316;16.174;2023-04-16T06:17:22;9.30;99.90
38860;DHT22;24609;48.316;16.174;2023-04-16T06:19:48;9.30;99.90
38860;DHT22;24609;48.316;16.174;2023-04-16T06:22:14;9.30;99.90
38860;DHT22;24609;48.316;16.174;2023-04-16T06:24:39;9.40;99.90
38860;DHT22;24609;48.316;16.174;2023-04-16T06:27:06;9.20;99.90
38860;DHT22;24609;48.316;16.174;2023-04-16T06:29:31;9.10;99.90
38860;DHT22;24609;48.316;16.174;2023-04-16T06:31:57;8.90;99.90
38860;DHT22;24609;48.316;16.174;2023-04-16T06:34:23;8.80;99.90
38860;DHT22;24609;48.316;16.174;2023-04-16T06:36:48;8.70;99.90
38860;DHT22;24609;48.316;16.174;2023-04-16T06:39:14;8.60;99.90
38860;DHT22;24609;48.316;16.174;2023-04-16T06:41:40;8.50;99.90
38860;DHT22;24609;48.316;16.174;2023-04-16T06:44:06;8.60;99.90
38860;DHT22;24609;48.316;16.174;2023-04-16T06:46:31;8.40;99.90
38860;DHT22;24609;48.316;16.174;2023-04-16T06:48:57;8.40;99.90
38860;DHT22;24609;48.316;16.174;2023-04-16T06:51:22;8.30;99.90
38860;DHT22;24609;48.316;16.174;2023-04-16T06:53:48;8.50;99.90
38860;DHT22;24609;48.316;16.174;2023-04-16T06:56:14;8.40;99.90
38860;DHT22;24609;48.316;16.174;2023-04-16T06:58:40;8.30;99.90
38860;DHT22;24609;48.316;16.174;2023-04-16T07:01:05;8.10;99.90
38860;DHT22;24609;48.316;16.174;2023-04-16T07:03:31;8.20;99.90
38860;DHT22;24609;48.316;16.174;2023-04-16T07:05:57;8.10;99.90
38860;DHT22;24609;48.316;16.174;2023-04-16T07:08:22;8.20;99.90
38860;DHT22;24609;48.316;16.174;2023-04-16T07:10:49;8.40;99.90
38860;DHT22;24609;48.316;16.174;2023-04-16T07:13:15;8.50;99.90
38860;DHT22;24609;48.316;16.174;2023-04-16T07:15:42;8.60;99.90
38860;DHT22;24609;48.316;16.174;2023-04-16T07:18:08;8.80;99.90
38860;DHT22;24609;48.316;16.174;2023-04-16T07:20:34;9.00;99.90
38860;DHT22;24609;48.316;16.174;2023-04-16T07:23:01;9.10;99.90
38860;DHT22;24609;48.316;16.174;2023-04-16T07:25:26;9.50;99.90
38860;DHT22;24609;48.316;16.174;2023-04-16T07:27:52;9.90;99.90
38860;DHT22;24609;48.316;16.174;2023-04-16T07:30:18;10.40;99.90
38860;DHT22;24609;48.316;16.174;2023-04-16T07:32:43;10.90;99.90
38860;DHT22;24609;48.316;16.174;2023-04-16T07:35:09;11.40;99.90
38860;DHT22;24609;48.316;16.174;2023-04-16T07:37:35;11.90;99.90
38860;DHT22;24609;48.316;16.174;2023-04-16T07:40:01;12.10;99.90
38860;DHT22;24609;48.316;16.174;2023-04-16T07:42:27;12.30;99.90
38860;DHT22;24609;48.316;16.174;2023-04-16T07:44:53;12.00;99.90
38860;DHT22;24609;48.316;16.174;2023-04-16T07:47:19;12.20;99.90
38860;DHT22;24609;48.316;16.174;2023-04-16T07:49:47;12.40;99.90
38860;DHT22;24609;48.316;16.174;2023-04-16T07:52:14;12.60;99.90
38860;DHT22;24609;48.316;16.174;2023-04-16T07:54:40;12.50;99.90
38860;DHT22;24609;48.316;16.174;2023-04-16T07:57:05;11.40;99.90
38860;DHT22;24609;48.316;16.174;2023-04-16T07:59:31;10.80;99.90
38860;DHT22;24609;48.316;16.174;2023-04-16T08:01:57;10.60;99.90
38860;DHT22;24609;48.316;16.174;2023-04-16T08:04:22;10.60;99.90
38860;DHT22;24609;48.316;16.174;2023-04-16T08:06:51;10.60;99.90
38860;DHT22;24609;48.316;16.174;2023-04-16T08:09:18;10.90;99.90
38860;DHT22;24609;48.316;16.174;2023-04-16T08:11:45;11.10;99.90
38860;DHT22;24609;48.316;16.174;2023-04-16T08:14:10;12.00;99.90
38860;DHT22;24609;48.316;16.174;2023-04-16T08:16:36;13.00;99.90
38860;DHT22;24609;48.316;16.174;2023-04-16T08:19:03;13.50;99.90
38860;DHT22;24609;48.316;16.174;2023-04-16T08:21:28;13.60;99.90
38860;DHT22;24609;48.316;16.174;2023-04-16T08:23:56;15.30;99.90
38860;DHT22;24609;48.316;16.174;2023-04-16T08:26:21;17.30;99.90
38860;DHT22;24609;48.316;16.174;2023-04-16T08:28:47;17.90;99.90
38860;DHT22;24609;48.316;16.174;2023-04-16T08:31:13;17.10;99.90
38860;DHT22;24609;48.316;16.174;2023-04-16T08:33:39;17.40;99.90
38860;DHT22;24609;48.316;16.174;2023-04-16T08:36:05;16.80;99.90
38860;DHT22;24609;48.316;16.174;2023-04-16T08:38:31;16.70;99.90
38860;DHT22;24609;48.316;16.174;2023-04-16T08:41:01;14.70;99.90
38860;DHT22;24609;48.316;16.174;2023-04-16T08:43:32;13.60;99.90
38860;DHT22;24609;48.316;16.174;2023-04-16T08:45:58;13.30;99.90
38860;DHT22;24609;48.316;16.174;2023-04-16T08:48:27;13.10;99.90
38860;DHT22;24609;48.316;16.174;2023-04-16T08:50:53;14.30;99.90
38860;DHT22;24609;48.316;16.174;2023-04-16T08:53:22;15.40;99.90
38860;DHT22;24609;48.316;16.174;2023-04-16T08:55:51;17.20;99.90
38860;DHT22;24609;48.316;16.174;2023-04-16T08:58:21;17.10;99.90
38860;DHT22;24609;48.316;16.174;2023-04-16T09:00:48;18.20;99.90
38860;DHT22;24609;48.316;16.174;2023-04-16T09:03:14;17.90;99.90
38860;DHT22;24609;48.316;16.174;2023-04-16T09:05:41;18.60;99.90
38860;DHT22;24609;48.316;16.174;2023-04-16T09:08:07;18.70;96.40
38860;DHT22;24609;48.316;16.174;2023-04-16T09:10:34;16.40;99.90
38860;DHT22;24609;48.316;16.174;2023-04-16T09:13:00;14.40;99.90
38860;DHT22;24609;48.316;16.174;2023-04-16T09:15:26;14.90;99.90
38860;DHT22;24609;48.316;16.174;2023-04-16T09:17:52;15.40;99.90
38860;DHT22;24609;48.316;16.174;2023-04-16T09:20:18;16.50;99.90
38860;DHT22;24609;48.316;16.174;2023-04-16T09:22:44;17.20;99.90
38860;DHT22;24609;48.316;16.174;2023-04-16T09:25:11;16.40;99.00
38860;DHT22;24609;48.316;16.174;2023-04-16T09:27:37;16.80;99.90
38860;DHT22;24609;48.316;16.174;2023-04-16T09:30:24;19.90;96.80
38860;DHT22;24609;48.316;16.174;2023-04-16T09:32:51;22.00;84.80
38860;DHT22;24609;48.316;16.174;2023-04-16T09:35:18;22.10;85.90
38860;DHT22;24609;48.316;16.174;2023-04-16T09:37:54;23.30;71.70
38860;DHT22;24609;48.316;16.174;2023-04-16T09:40:24;24.90;68.10
38860;DHT22;24609;48.316;16.174;2023-04-16T09:42:51;24.10;69.60
38860;DHT22;24609;48.316;16.174;2023-04-16T09:45:16;23.50;71.60
38860;DHT22;24609;48.316;16.174;2023-04-16T09:47:43;22.40;67.60
38860;DHT22;24609;48.316;16.174;2023-04-16T09:50:14;21.40;69.00
38860;DHT22;24609;48.316;16.174;2023-04-16T09:52:43;19.90;77.50
38860;DHT22;24609;48.316;16.174;2023-04-16T09:55:13;19.80;75.60
38860;DHT22;24609;48.316;16.174;2023-04-16T09:57:39;20.30;73.40
38860;DHT22;24609;48.316;16.174;2023-04-16T10:00:06;18.90;83.50
38860;DHT22;24609;48.316;16.174;2023-04-16T10:02:34;18.30;83.90
38860;DHT22;24609;48.316;16.174;2023-04-16T10:05:01;17.70;82.40
38860;DHT22;24609;48.316;16.174;2023-04-16T10:07:35;18.10;84.20
38860;DHT22;24609;48.316;16.174;2023-04-16T10:10:02;16.30;84.90
38860;DHT22;24609;48.316;16.174;2023-04-16T10:12:29;16.10;91.30
38860;DHT22;24609;48.316;16.174;2023-04-16T10:14:55;17.40;91.50
38860;DHT22;24609;48.316;16.174;2023-04-16T10:17:20;17.50;91.40
38860;DHT22;24609;48.316;16.174;2023-04-16T10:19:48;16.70;92.10
38860;DHT22;24609;48.316;16.174;2023-04-16T10:22:15;16.70;91.40
38860;DHT22;24609;48.316;16.174;2023-04-16T10:24:41;16.80;91.20
38860;DHT22;24609;48.316;16.174;2023-04-16T10:27:08;16.90;90.00
38860;DHT22;24609;48.316;16.174;2023-04-16T10:29:34;16.20;90.80
38860;DHT22;24609;48.316;16.174;2023-04-16T10:32:00;16.30;92.30
38860;DHT22;24609;48.316;16.174;2023-04-16T10:34:27;16.00;92.40
38860;DHT22;24609;48.316;16.174;2023-04-16T10:36:54;15.40;92.40
38860;DHT22;24609;48.316;16.174;2023-04-16T10:39:26;14.80;93.70
38860;DHT22;24609;48.316;16.174;2023-04-16T10:42:11;14.80;95.60
38860;DHT22;24609;48.316;16.174;2023-04-16T10:44:38;13.30;94.80
38860;DHT22;24609;48.316;16.174;2023-04-16T10:47:11;13.80;96.80
38860;DHT22;24609;48.316;16.174;2023-04-16T10:49:37;14.70;97.30
38860;DHT22;24609;48.316;16.174;2023-04-16T10:54:35;14.10;97.10
38860;DHT22;24609;48.316;16.174;2023-04-16T10:57:07;15.20;96.70
38860;DHT22;24609;48.316;16.174;2023-04-16T10:59:34;16.20;95.10
38860;DHT22;24609;48.316;16.174;2023-04-16T11:02:12;16.30;93.60
38860;DHT22;24609;48.316;16.174;2023-04-16T11:04:39;16.80;94.60
38860;DHT22;24609;48.316;16.174;2023-04-16T11:10:04;16.00;94.20
38860;DHT22;24609;48.316;16.174;2023-04-16T11:12:37;16.30;93.20
38860;DHT22;24609;48.316;16.174;2023-04-16T11:15:07;17.00;94.30
38860;DHT22;24609;48.316;16.174;2023-04-16T11:17:42;16.00;93.60
38860;DHT22;24609;48.316;16.174;2023-04-16T11:20:29;18.90;93.00
38860;DHT22;24609;48.316;16.174;2023-04-16T11:22:56;22.70;84.30
38860;DHT22;24609;48.316;16.174;2023-04-16T11:25:29;27.40;60.10
38860;DHT22;24609;48.316;16.174;2023-04-16T11:27:55;26.70;52.00
38860;DHT22;24609;48.316;16.174;2023-04-16T11:30:32;30.00;51.10
38860;DHT22;24609;48.316;16.174;2023-04-16T11:33:01;27.70;46.50
38860;DHT22;24609;48.316;16.174;2023-04-16T11:35:27;26.30;52.60
38860;DHT22;24609;48.316;16.174;2023-04-16T11:37:56;25.70;48.90
38860;DHT22;24609;48.316;16.174;2023-04-16T11:40:23;27.80;50.80
38860;DHT22;24609;48.316;16.174;2023-04-16T11:42:49;27.80;47.30
38860;DHT22;24609;48.316;16.174;2023-04-16T11:45:15;27.40;49.20
38860;DHT22;24609;48.316;16.174;2023-04-16T11:47:47;26.50;47.30
38860;DHT22;24609;48.316;16.174;2023-04-16T11:50:28;27.70;49.20
38860;DHT22;24609;48.316;16.174;2023-04-16T11:52:56;27.60;46.50
38860;DHT22;24609;48.316;16.174;2023-04-16T11:55:22;25.50;52.30
38860;DHT22;24609;48.316;16.174;2023-04-16T11:57:49;22.50;55.30
38860;DHT22;24609;48.316;16.174;2023-04-16T12:00:15;21.20;59.80
38860;DHT22;24609;48.316;16.174;2023-04-16T12:02:52;20.30;59.80
38860;DHT22;24609;48.316;16.174;2023-04-16T12:05:34;20.20;62.90
38860;DHT22;24609;48.316;16.174;2023-04-16T12:08:09;19.90;59.50
38860;DHT22;24609;48.316;16.174;2023-04-16T12:10:37;22.90;58.10
38860;DHT22;24609;48.316;16.174;2023-04-16T12:13:16;25.10;53.40
38860;DHT22;24609;48.316;16.174;2023-04-16T12:18:09;20.20;64.20
38860;DHT22;24609;48.316;16.174;2023-04-16T12:20:39;19.20;65.70
38860;DHT22;24609;48.316;16.174;2023-04-16T12:23:08;19.20;67.40
38860;DHT22;24609;48.316;16.174;2023-04-16T12:25:33;18.90;65.80
38860;DHT22;24609;48.316;16.174;2023-04-16T12:27:59;19.80;69.00
38860;DHT22;24609;48.316;16.174;2023-04-16T12:30:26;20.50;64.30
38860;DHT22;24609;48.316;16.174;2023-04-16T12:33:13;21.30;64.10
38860;DHT22;24609;48.316;16.174;2023-04-16T12:35:41;21.60;62.30
38860;DHT22;24609;48.316;16.174;2023-04-16T12:38:07;19.40;68.40
38860;DHT22;24609;48.316;16.174;2023-04-16T12:40:33;18.50;68.20
38860;DHT22;24609;48.316;16.174;2023-04-16T12:43:00;17.80;73.30
38860;DHT22;24609;48.316;16.174;2023-04-16T12:45:26;18.10;71.90
38860;DHT22;24609;48.316;16.174;2023-04-16T12:47:52;18.60;70.00
38860;DHT22;24609;48.316;16.174;2023-04-16T12:50:18;19.30;67.60
38860;DHT22;24609;48.316;16.174;2023-04-16T12:52:44;20.20;64.00
38860;DHT22;24609;48.316;16.174;2023-04-16T12:55:09;20.80;61.40
38860;DHT22;24609;48.316;16.174;2023-04-16T12:57:36;20.50;64.10
38860;DHT22;24609;48.316;16.174;2023-04-16T13:00:01;20.00;65.30
38860;DHT22;24609;48.316;16.174;2023-04-16T13:02:29;21.60;62.10
38860;DHT22;24609;48.316;16.174;2023-04-16T13:04:55;23.50;57.30
38860;DHT22;24609;48.316;16.174;2023-04-16T13:07:20;22.70;58.90
38860;DHT22;24609;48.316;16.174;2023-04-16T13:09:46;22.00;57.80
38860;DHT22;24609;48.316;16.174;2023-04-16T13:12:12;21.50;58.40
38860;DHT22;24609;48.316;16.174;2023-04-16T13:14:38;20.80;58.00
38860;DHT22;24609;48.316;16.174;2023-04-16T13:17:04;20.50;62.40
38860;DHT22;24609;48.316;16.174;2023-04-16T13:19:30;19.80;61.70
38860;DHT22;24609;48.316;16.174;2023-04-16T13:21:56;20.00;63.00
38860;DHT22;24609;48.316;16.174;2023-04-16T13:24:22;22.50;59.70
38860;DHT22;24609;48.316;16.174;2023-04-16T13:26:49;22.10;54.60
38860;DHT22;24609;48.316;16.174;2023-04-16T13:29:16;24.80;52.20
38860;DHT22;24609;48.316;16.174;2023-04-16T13:31:42;23.50;56.10
38860;DHT22;24609;48.316;16.174;2023-04-16T13:34:08;25.30;54.00
38860;DHT22;24609;48.316;16.174;2023-04-16T13:36:34;23.90;57.60
38860;DHT22;24609;48.316;16.174;2023-04-16T13:38:59;23.30;56.10
38860;DHT22;24609;48.316;16.174;2023-04-16T13:41:25;23.30;56.10
38860;DHT22;24609;48.316;16.174;2023-04-16T13:43:52;22.90;57.10
38860;DHT22;24609;48.316;16.174;2023-04-16T13:46:18;22.30;57.30
38860;DHT22;24609;48.316;16.174;2023-04-16T13:48:44;20.40;58.80
38860;DHT22;24609;48.316;16.174;2023-04-16T13:51:10;20.60;60.60
38860;DHT22;24609;48.316;16.174;2023-04-16T13:53:36;21.30;58.40
38860;DHT22;24609;48.316;16.174;2023-04-16T13:56:02;20.90;58.30
38860;DHT22;24609;48.316;16.174;2023-04-16T13:58:32;21.40;58.60
38860;DHT22;24609;48.316;16.174;2023-04-16T14:00:58;20.80;61.00
38860;DHT22;24609;48.316;16.174;2023-04-16T14:03:26;19.80;58.50
38860;DHT22;24609;48.316;16.174;2023-04-16T14:05:52;18.80;63.30
38860;DHT22;24609;48.316;16.174;2023-04-16T14:08:19;18.20;67.70
38860;DHT22;24609;48.316;16.174;2023-04-16T14:10:48;17.80;67.50
38860;DHT22;24609;48.316;16.174;2023-04-16T14:13:14;17.50;69.70
38860;DHT22;24609;48.316;16.174;2023-04-16T14:15:40;17.50;67.80
38860;DHT22;24609;48.316;16.174;2023-04-16T14:18:06;17.00;66.60
38860;DHT22;24609;48.316;16.174;2023-04-16T14:20:31;16.80;72.80
38860;DHT22;24609;48.316;16.174;2023-04-16T14:22:57;17.00;70.90
38860;DHT22;24609;48.316;16.174;2023-04-16T14:25:23;17.10;72.10
38860;DHT22;24609;48.316;16.174;2023-04-16T14:27:49;17.20;70.00
38860;DHT22;24609;48.316;16.174;2023-04-16T14:30:15;17.40;72.30
38860;DHT22;24609;48.316;16.174;2023-04-16T14:32:41;17.60;73.10
38860;DHT22;24609;48.316;16.174;2023-04-16T14:35:07;17.10;70.60
38860;DHT22;24609;48.316;16.174;2023-04-16T14:37:33;17.20;72.60
38860;DHT22;24609;48.316;16.174;2023-04-16T14:40:01;17.30;72.60
38860;DHT22;24609;48.316;16.174;2023-04-16T14:42:29;17.20;74.90
38860;DHT22;24609;48.316;16.174;2023-04-16T14:44:55;16.60;74.70
38860;DHT22;24609;48.316;16.174;2023-04-16T14:47:21;16.30;72.90
38860;DHT22;24609;48.316;16.174;2023-04-16T14:49:46;15.80;78.00
38860;DHT22;24609;48.316;16.174;2023-04-16T14:52:12;16.00;78.10
38860;DHT22;24609;48.316;16.174;2023-04-16T14:54:38;16.00;80.20
38860;DHT22;24609;48.316;16.174;2023-04-16T14:57:03;16.10;77.80
38860;DHT22;24609;48.316;16.174;2023-04-16T14:59:29;16.00;77.60
38860;DHT22;24609;48.316;16.174;2023-04-16T15:01:56;15.90;80.10
38860;DHT22;24609;48.316;16.174;2023-04-16T15:04:23;15.70;78.90
38860;DHT22;24609;48.316;16.174;2023-04-16T15:06:48;15.70;78.80
38860;DHT22;24609;48.316;16.174;2023-04-16T15:09:14;15.70;79.10
38860;DHT22;24609;48.316;16.174;2023-04-16T15:11:40;15.20;77.30
38860;DHT22;24609;48.316;16.174;2023-04-16T15:14:06;15.20;82.70
38860;DHT22;24609;48.316;16.174;2023-04-16T15:16:32;15.10;80.40
38860;DHT22;24609;48.316;16.174;2023-04-16T15:18:57;14.70;77.20
38860;DHT22;24609;48.316;16.174;2023-04-16T15:21:24;14.60;85.30
38860;DHT22;24609;48.316;16.174;2023-04-16T15:23:50;14.20;94.40
38860;DHT22;24609;48.316;16.174;2023-04-16T15:26:16;13.90;99.90
38860;DHT22;24609;48.316;16.174;2023-04-16T15:28:42;14.00;99.90